sensor_id;sensor_type;location;lat;lon;timestamp;P1;durP1;ratioP1;P2;durP2;ratioP2
78916;SDS011;68315;48.608;11.436;2023-04-01T00:01:59;1.08;;;0.55;;
78916;SDS011;68315;48.608;11.436;2023-04-01T00:04:25;1.75;;;0.98;;
78916;SDS011;68315;48.608;11.436;2023-04-01T00:06:50;1.77;;;0.80;;
78916;SDS011;68315;48.608;11.436;2023-04-01T00:09:16;0.90;;;0.60;;
78916;SDS011;68315;48.608;11.436;2023-04-01T00:11:42;3.53;;;0.90;;
78916;SDS011;68315;48.608;11.436;2023-04-01T00:14:07;0.82;;;0.52;;
78916;SDS011;68315;48.608;11.436;2023-04-01T00:16:33;2.55;;;0.70;;
78916;SDS011;68315;48.608;11.436;2023-04-01T00:18:58;1.08;;;0.70;;
78916;SDS011;68315;48.608;11.436;2023-04-01T00:21:25;0.90;;;0.68;;
78916;SDS011;68315;48.608;11.436;2023-04-01T00:23:51;2.05;;;0.70;;
78916;SDS011;68315;48.608;11.436;2023-04-01T00:26:16;1.38;;;0.82;;
78916;SDS011;68315;48.608;11.436;2023-04-01T00:28:46;1.83;;;0.70;;
78916;SDS011;68315;48.608;11.436;2023-04-01T00:31:11;1.60;;;0.82;;
78916;SDS011;68315;48.608;11.436;2023-04-01T00:33:37;2.58;;;0.80;;
78916;SDS011;68315;48.608;11.436;2023-04-01T00:36:07;0.63;;;0.63;;
78916;SDS011;68315;48.608;11.436;2023-04-01T00:38:37;2.35;;;0.90;;
78916;SDS011;68315;48.608;11.436;2023-04-01T00:41:03;1.73;;;0.68;;
78916;SDS011;68315;48.608;11.436;2023-04-01T00:43:29;1.65;;;0.70;;
78916;SDS011;68315;48.608;11.436;2023-04-01T00:45:55;2.45;;;1.17;;
78916;SDS011;68315;48.608;11.436;2023-04-01T00:48:24;1.98;;;0.70;;
78916;SDS011;68315;48.608;11.436;2023-04-01T00:50:55;1.90;;;0.80;;
78916;SDS011;68315;48.608;11.436;2023-04-01T00:53:24;1.23;;;0.68;;
78916;SDS011;68315;48.608;11.436;2023-04-01T00:55:52;1.73;;;1.05;;
78916;SDS011;68315;48.608;11.436;2023-04-01T00:58:21;1.63;;;0.90;;
78916;SDS011;68315;48.608;11.436;2023-04-01T01:00:49;2.70;;;0.88;;
78916;SDS011;68315;48.608;11.436;2023-04-01T01:03:16;1.90;;;0.80;;
78916;SDS011;68315;48.608;11.436;2023-04-01T01:05:49;2.83;;;0.95;;
78916;SDS011;68315;48.608;11.436;2023-04-01T01:11:03;1.67;;;0.90;;
78916;SDS011;68315;48.608;11.436;2023-04-01T01:13:40;2.15;;;0.80;;
78916;SDS011;68315;48.608;11.436;2023-04-01T01:19:02;4.22;;;1.00;;
78916;SDS011;68315;48.608;11.436;2023-04-01T01:21:43;3.05;;;0.90;;
78916;SDS011;68315;48.608;11.436;2023-04-01T01:24:36;3.67;;;1.20;;
78916;SDS011;68315;48.608;11.436;2023-04-01T01:27:10;2.92;;;1.00;;
78916;SDS011;68315;48.608;11.436;2023-04-01T01:38:11;2.15;;;0.90;;
78916;SDS011;68315;48.608;11.436;2023-04-01T01:40:40;1.23;;;0.75;;
78916;SDS011;68315;48.608;11.436;2023-04-01T01:43:08;1.67;;;1.00;;
78916;SDS011;68315;48.608;11.436;2023-04-01T01:45:37;4.28;;;1.00;;
78916;SDS011;68315;48.608;11.436;2023-04-01T01:48:08;2.58;;;1.20;;
78916;SDS011;68315;48.608;11.436;2023-04-01T01:50:35;2.20;;;0.82;;
78916;SDS011;68315;48.608;11.436;2023-04-01T01:53:06;2.85;;;0.80;;
78916;SDS011;68315;48.608;11.436;2023-04-01T01:55:34;3.08;;;1.10;;
78916;SDS011;68315;48.608;11.436;2023-04-01T01:58:06;2.58;;;1.42;;
78916;SDS011;68315;48.608;11.436;2023-04-01T02:00:36;2.95;;;0.80;;
78916;SDS011;68315;48.608;11.436;2023-04-01T02:03:02;2.78;;;0.80;;
78916;SDS011;68315;48.608;11.436;2023-04-01T02:05:29;3.50;;;1.05;;
78916;SDS011;68315;48.608;11.436;2023-04-01T02:07:59;1.30;;;0.90;;
78916;SDS011;68315;48.608;11.436;2023-04-01T02:10:31;3.25;;;0.90;;
78916;SDS011;68315;48.608;11.436;2023-04-01T02:12:59;1.50;;;0.80;;
78916;SDS011;68315;48.608;11.436;2023-04-01T02:15:31;3.58;;;0.70;;
78916;SDS011;68315;48.608;11.436;2023-04-01T02:18:02;2.55;;;0.80;;
78916;SDS011;68315;48.608;11.436;2023-04-01T02:20:29;2.90;;;0.80;;
78916;SDS011;68315;48.608;11.436;2023-04-01T02:22:55;0.70;;;0.70;;
78916;SDS011;68315;48.608;11.436;2023-04-01T02:25:26;4.38;;;0.90;;
78916;SDS011;68315;48.608;11.436;2023-04-01T02:27:54;3.00;;;1.30;;
78916;SDS011;68315;48.608;11.436;2023-04-01T02:30:21;1.33;;;0.77;;
78916;SDS011;68315;48.608;11.436;2023-04-01T02:32:47;1.52;;;0.80;;
78916;SDS011;68315;48.608;11.436;2023-04-01T02:35:15;3.03;;;0.80;;
78916;SDS011;68315;48.608;11.436;2023-04-01T02:37:43;2.00;;;0.60;;
78916;SDS011;68315;48.608;11.436;2023-04-01T02:40:11;1.98;;;0.75;;
78916;SDS011;68315;48.608;11.436;2023-04-01T02:42:38;1.95;;;0.80;;
78916;SDS011;68315;48.608;11.436;2023-04-01T02:45:04;2.95;;;1.05;;
78916;SDS011;68315;48.608;11.436;2023-04-01T02:47:30;1.77;;;0.70;;
78916;SDS011;68315;48.608;11.436;2023-04-01T02:49:55;2.05;;;0.73;;
78916;SDS011;68315;48.608;11.436;2023-04-01T02:52:27;1.40;;;0.82;;
78916;SDS011;68315;48.608;11.436;2023-04-01T02:54:53;2.63;;;0.70;;
78916;SDS011;68315;48.608;11.436;2023-04-01T02:57:19;0.88;;;0.63;;
78916;SDS011;68315;48.608;11.436;2023-04-01T02:59:44;1.25;;;0.70;;
78916;SDS011;68315;48.608;11.436;2023-04-01T03:02:10;1.10;;;0.75;;
78916;SDS011;68315;48.608;11.436;2023-04-01T03:04:35;1.60;;;0.70;;
78916;SDS011;68315;48.608;11.436;2023-04-01T03:07:00;2.17;;;0.60;;
78916;SDS011;68315;48.608;11.436;2023-04-01T03:09:26;0.85;;;0.60;;
78916;SDS011;68315;48.608;11.436;2023-04-01T03:11:51;1.63;;;0.60;;
78916;SDS011;68315;48.608;11.436;2023-04-01T03:14:16;0.60;;;0.60;;
78916;SDS011;68315;48.608;11.436;2023-04-01T03:16:42;1.45;;;0.82;;
78916;SDS011;68315;48.608;11.436;2023-04-01T03:19:07;2.00;;;0.80;;
78916;SDS011;68315;48.608;11.436;2023-04-01T03:21:32;1.58;;;0.65;;
78916;SDS011;68315;48.608;11.436;2023-04-01T03:23:57;0.65;;;0.65;;
78916;SDS011;68315;48.608;11.436;2023-04-01T03:26:23;3.47;;;0.80;;
78916;SDS011;68315;48.608;11.436;2023-04-01T03:28:49;2.50;;;0.88;;
78916;SDS011;68315;48.608;11.436;2023-04-01T03:31:14;1.08;;;0.70;;
78916;SDS011;68315;48.608;11.436;2023-04-01T03:33:40;1.90;;;0.70;;
78916;SDS011;68315;48.608;11.436;2023-04-01T03:36:06;3.65;;;1.00;;
78916;SDS011;68315;48.608;11.436;2023-04-01T03:38:32;1.20;;;0.60;;
78916;SDS011;68315;48.608;11.436;2023-04-01T03:40:58;1.90;;;0.70;;
78916;SDS011;68315;48.608;11.436;2023-04-01T03:43:24;2.72;;;1.00;;
78916;SDS011;68315;48.608;11.436;2023-04-01T03:45:50;1.33;;;0.70;;
78916;SDS011;68315;48.608;11.436;2023-04-01T03:48:16;1.77;;;0.70;;
78916;SDS011;68315;48.608;11.436;2023-04-01T03:50:42;0.63;;;0.60;;
78916;SDS011;68315;48.608;11.436;2023-04-01T03:53:08;0.70;;;0.50;;
78916;SDS011;68315;48.608;11.436;2023-04-01T03:55:35;0.85;;;0.50;;
78916;SDS011;68315;48.608;11.436;2023-04-01T03:58:00;0.93;;;0.50;;
78916;SDS011;68315;48.608;11.436;2023-04-01T04:00:27;2.75;;;0.73;;
78916;SDS011;68315;48.608;11.436;2023-04-01T04:02:53;1.20;;;0.50;;
78916;SDS011;68315;48.608;11.436;2023-04-01T04:05:19;1.33;;;0.60;;
78916;SDS011;68315;48.608;11.436;2023-04-01T04:07:45;1.40;;;0.63;;
78916;SDS011;68315;48.608;11.436;2023-04-01T04:10:10;1.42;;;0.55;;
78916;SDS011;68315;48.608;11.436;2023-04-01T04:12:35;0.50;;;0.50;;
78916;SDS011;68315;48.608;11.436;2023-04-01T04:15:00;1.20;;;0.50;;
78916;SDS011;68315;48.608;11.436;2023-04-01T04:17:26;0.90;;;0.47;;
78916;SDS011;68315;48.608;11.436;2023-04-01T04:19:51;1.10;;;0.57;;
78916;SDS011;68315;48.608;11.436;2023-04-01T04:22:16;1.35;;;0.60;;
78916;SDS011;68315;48.608;11.436;2023-04-01T04:24:41;0.50;;;0.50;;
78916;SDS011;68315;48.608;11.436;2023-04-01T04:27:07;1.13;;;0.55;;
78916;SDS011;68315;48.608;11.436;2023-04-01T04:29:32;0.98;;;0.55;;
78916;SDS011;68315;48.608;11.436;2023-04-01T04:31:57;0.45;;;0.45;;
78916;SDS011;68315;48.608;11.436;2023-04-01T04:34:22;1.35;;;0.50;;
78916;SDS011;68315;48.608;11.436;2023-04-01T04:36:48;0.55;;;0.40;;
78916;SDS011;68315;48.608;11.436;2023-04-01T04:39:14;1.00;;;0.50;;
78916;SDS011;68315;48.608;11.436;2023-04-01T04:41:40;0.40;;;0.40;;
78916;SDS011;68315;48.608;11.436;2023-04-01T04:44:05;1.08;;;0.40;;
78916;SDS011;68315;48.608;11.436;2023-04-01T04:46:30;0.40;;;0.40;;
78916;SDS011;68315;48.608;11.436;2023-04-01T04:48:56;0.40;;;0.40;;
78916;SDS011;68315;48.608;11.436;2023-04-01T04:51:21;0.63;;;0.50;;
78916;SDS011;68315;48.608;11.436;2023-04-01T04:53:47;0.43;;;0.43;;
78916;SDS011;68315;48.608;11.436;2023-04-01T04:56:13;0.60;;;0.43;;
78916;SDS011;68315;48.608;11.436;2023-04-01T04:58:41;0.95;;;0.40;;
78916;SDS011;68315;48.608;11.436;2023-04-01T05:01:08;0.75;;;0.40;;
78916;SDS011;68315;48.608;11.436;2023-04-01T05:03:35;0.40;;;0.40;;
78916;SDS011;68315;48.608;11.436;2023-04-01T05:06:01;0.52;;;0.47;;
78916;SDS011;68315;48.608;11.436;2023-04-01T05:08:26;0.80;;;0.57;;
78916;SDS011;68315;48.608;11.436;2023-04-01T05:10:52;0.50;;;0.50;;
78916;SDS011;68315;48.608;11.436;2023-04-01T05:13:17;0.73;;;0.50;;
78916;SDS011;68315;48.608;11.436;2023-04-01T05:15:42;0.50;;;0.50;;
78916;SDS011;68315;48.608;11.436;2023-04-01T05:18:07;0.60;;;0.50;;
78916;SDS011;68315;48.608;11.436;2023-04-01T05:20:33;0.47;;;0.47;;
78916;SDS011;68315;48.608;11.436;2023-04-01T05:22:58;2.28;;;0.50;;
78916;SDS011;68315;48.608;11.436;2023-04-01T05:25:24;0.70;;;0.60;;
78916;SDS011;68315;48.608;11.436;2023-04-01T05:27:50;1.40;;;0.63;;
78916;SDS011;68315;48.608;11.436;2023-04-01T05:30:16;1.08;;;0.70;;
78916;SDS011;68315;48.608;11.436;2023-04-01T05:32:41;1.08;;;0.50;;
78916;SDS011;68315;48.608;11.436;2023-04-01T05:35:06;0.77;;;0.60;;
78916;SDS011;68315;48.608;11.436;2023-04-01T05:37:35;0.82;;;0.60;;
78916;SDS011;68315;48.608;11.436;2023-04-01T05:40:01;0.85;;;0.60;;
78916;SDS011;68315;48.608;11.436;2023-04-01T05:42:27;0.65;;;0.60;;
78916;SDS011;68315;48.608;11.436;2023-04-01T05:44:52;0.65;;;0.65;;
78916;SDS011;68315;48.608;11.436;2023-04-01T05:47:21;0.40;;;0.40;;
78916;SDS011;68315;48.608;11.436;2023-04-01T05:49:47;1.08;;;0.60;;
78916;SDS011;68315;48.608;11.436;2023-04-01T05:52:12;3.88;;;0.70;;
78916;SDS011;68315;48.608;11.436;2023-04-01T05:54:37;1.15;;;0.60;;
78916;SDS011;68315;48.608;11.436;2023-04-01T05:57:03;2.33;;;0.85;;
78916;SDS011;68315;48.608;11.436;2023-04-01T05:59:28;1.88;;;0.63;;
78916;SDS011;68315;48.608;11.436;2023-04-01T06:01:56;0.50;;;0.50;;
78916;SDS011;68315;48.608;11.436;2023-04-01T06:04:21;0.88;;;0.60;;
78916;SDS011;68315;48.608;11.436;2023-04-01T06:06:46;1.55;;;0.80;;
78916;SDS011;68315;48.608;11.436;2023-04-01T06:09:13;1.95;;;0.70;;
78916;SDS011;68315;48.608;11.436;2023-04-01T06:11:55;1.30;;;0.60;;
78916;SDS011;68315;48.608;11.436;2023-04-01T06:21:11;2.13;;;0.80;;
78916;SDS011;68315;48.608;11.436;2023-04-01T06:23:52;2.42;;;0.80;;
78916;SDS011;68315;48.608;11.436;2023-04-01T06:26:30;1.80;;;0.80;;
78916;SDS011;68315;48.608;11.436;2023-04-01T06:37:57;2.78;;;0.85;;
78916;SDS011;68315;48.608;11.436;2023-04-01T06:52:02;1.48;;;0.70;;
78916;SDS011;68315;48.608;11.436;2023-04-01T06:54:36;1.88;;;0.80;;
78916;SDS011;68315;48.608;11.436;2023-04-01T06:57:14;1.73;;;0.75;;
78916;SDS011;68315;48.608;11.436;2023-04-01T06:59:43;1.75;;;0.70;;
78916;SDS011;68315;48.608;11.436;2023-04-01T07:04:35;2.70;;;0.80;;
78916;SDS011;68315;48.608;11.436;2023-04-01T07:07:13;1.95;;;0.90;;
78916;SDS011;68315;48.608;11.436;2023-04-01T07:09:48;1.63;;;0.80;;
78916;SDS011;68315;48.608;11.436;2023-04-01T07:15:00;2.88;;;0.82;;
78916;SDS011;68315;48.608;11.436;2023-04-01T07:17:30;1.63;;;0.70;;
78916;SDS011;68315;48.608;11.436;2023-04-01T07:19:59;1.60;;;0.80;;
78916;SDS011;68315;48.608;11.436;2023-04-01T07:22:29;3.55;;;0.98;;
78916;SDS011;68315;48.608;11.436;2023-04-01T07:25:02;2.58;;;0.88;;
78916;SDS011;68315;48.608;11.436;2023-04-01T07:27:39;3.33;;;1.35;;
78916;SDS011;68315;48.608;11.436;2023-04-01T07:30:12;3.15;;;1.00;;
78916;SDS011;68315;48.608;11.436;2023-04-01T07:32:42;2.42;;;0.90;;
78916;SDS011;68315;48.608;11.436;2023-04-01T07:35:23;2.75;;;0.88;;
78916;SDS011;68315;48.608;11.436;2023-04-01T07:46:10;1.85;;;0.70;;
78916;SDS011;68315;48.608;11.436;2023-04-01T07:48:50;2.15;;;0.95;;
78916;SDS011;68315;48.608;11.436;2023-04-01T07:51:23;2.05;;;0.82;;
78916;SDS011;68315;48.608;11.436;2023-04-01T07:53:58;1.38;;;0.65;;
78916;SDS011;68315;48.608;11.436;2023-04-01T07:56:51;1.10;;;0.60;;
78916;SDS011;68315;48.608;11.436;2023-04-01T07:59:38;1.75;;;0.68;;
78916;SDS011;68315;48.608;11.436;2023-04-01T08:05:11;1.92;;;0.88;;
78916;SDS011;68315;48.608;11.436;2023-04-01T08:07:45;1.70;;;0.60;;
78916;SDS011;68315;48.608;11.436;2023-04-01T08:18:37;1.40;;;0.60;;
78916;SDS011;68315;48.608;11.436;2023-04-01T08:21:27;0.95;;;0.50;;
78916;SDS011;68315;48.608;11.436;2023-04-01T08:23:56;1.90;;;0.60;;
78916;SDS011;68315;48.608;11.436;2023-04-01T08:29:11;0.70;;;0.40;;
78916;SDS011;68315;48.608;11.436;2023-04-01T08:31:53;1.40;;;0.40;;
78916;SDS011;68315;48.608;11.436;2023-04-01T08:34:24;3.08;;;0.70;;
78916;SDS011;68315;48.608;11.436;2023-04-01T08:37:06;0.93;;;0.60;;
78916;SDS011;68315;48.608;11.436;2023-04-01T08:39:42;0.55;;;0.50;;
78916;SDS011;68315;48.608;11.436;2023-04-01T08:53:27;1.52;;;0.95;;
78916;SDS011;68315;48.608;11.436;2023-04-01T08:56:17;1.63;;;0.60;;
78916;SDS011;68315;48.608;11.436;2023-04-01T09:23:01;1.33;;;0.75;;
78916;SDS011;68315;48.608;11.436;2023-04-01T09:46:02;0.65;;;0.60;;
78916;SDS011;68315;48.608;11.436;2023-04-01T09:57:41;0.50;;;0.50;;
78916;SDS011;68315;48.608;11.436;2023-04-01T10:09:16;0.77;;;0.40;;
78916;SDS011;68315;48.608;11.436;2023-04-01T10:15:20;1.23;;;0.68;;
78916;SDS011;68315;48.608;11.436;2023-04-01T10:28:56;0.80;;;0.50;;
78916;SDS011;68315;48.608;11.436;2023-04-01T10:34:31;1.75;;;0.50;;
78916;SDS011;68315;48.608;11.436;2023-04-01T10:40:17;0.45;;;0.45;;
78916;SDS011;68315;48.608;11.436;2023-04-01T10:42:53;2.10;;;0.40;;
78916;SDS011;68315;48.608;11.436;2023-04-01T11:08:53;0.90;;;0.70;;
78916;SDS011;68315;48.608;11.436;2023-04-01T11:19:41;1.05;;;0.63;;
78916;SDS011;68315;48.608;11.436;2023-04-01T11:28:41;1.48;;;0.73;;
78916;SDS011;68315;48.608;11.436;2023-04-01T11:37:24;1.50;;;0.70;;
78916;SDS011;68315;48.608;11.436;2023-04-01T11:40:05;0.93;;;0.60;;
78916;SDS011;68315;48.608;11.436;2023-04-01T11:42:52;0.75;;;0.50;;
78916;SDS011;68315;48.608;11.436;2023-04-01T11:53:47;0.57;;;0.40;;
78916;SDS011;68315;48.608;11.436;2023-04-01T12:02:16;2.55;;;0.70;;
78916;SDS011;68315;48.608;11.436;2023-04-01T12:08:02;1.00;;;0.80;;
78916;SDS011;68315;48.608;11.436;2023-04-01T12:18:49;0.82;;;0.80;;
78916;SDS011;68315;48.608;11.436;2023-04-01T12:24:11;0.60;;;0.60;;
78916;SDS011;68315;48.608;11.436;2023-04-01T12:29:43;0.77;;;0.77;;
78916;SDS011;68315;48.608;11.436;2023-04-01T12:43:17;0.57;;;0.57;;
78916;SDS011;68315;48.608;11.436;2023-04-01T12:48:22;0.52;;;0.52;;
78916;SDS011;68315;48.608;11.436;2023-04-01T12:59:38;0.60;;;0.60;;
78916;SDS011;68315;48.608;11.436;2023-04-01T13:05:33;0.50;;;0.50;;
78916;SDS011;68315;48.608;11.436;2023-04-01T13:28:16;0.65;;;0.65;;
78916;SDS011;68315;48.608;11.436;2023-04-01T13:33:21;1.55;;;0.60;;
78916;SDS011;68315;48.608;11.436;2023-04-01T13:38:55;0.63;;;0.60;;
78916;SDS011;68315;48.608;11.436;2023-04-01T13:43:59;0.50;;;0.50;;
78916;SDS011;68315;48.608;11.436;2023-04-01T13:58:23;0.50;;;0.50;;
78916;SDS011;68315;48.608;11.436;2023-04-01T14:01:05;0.55;;;0.55;;
78916;SDS011;68315;48.608;11.436;2023-04-01T14:12:04;0.80;;;0.57;;
78916;SDS011;68315;48.608;11.436;2023-04-01T14:14:56;0.70;;;0.70;;
78916;SDS011;68315;48.608;11.436;2023-04-01T14:20:36;0.73;;;0.70;;
78916;SDS011;68315;48.608;11.436;2023-04-01T14:26:12;1.63;;;0.70;;
78916;SDS011;68315;48.608;11.436;2023-04-01T14:50:50;0.50;;;0.50;;
78916;SDS011;68315;48.608;11.436;2023-04-01T14:58:14;2.45;;;0.77;;
78916;SDS011;68315;48.608;11.436;2023-04-01T15:03:29;0.50;;;0.50;;
78916;SDS011;68315;48.608;11.436;2023-04-01T15:06:10;0.60;;;0.60;;
78916;SDS011;68315;48.608;11.436;2023-04-01T15:11:57;0.70;;;0.70;;
78916;SDS011;68315;48.608;11.436;2023-04-01T15:31:50;0.98;;;0.70;;
78916;SDS011;68315;48.608;11.436;2023-04-01T15:37:18;1.00;;;0.90;;
78916;SDS011;68315;48.608;11.436;2023-04-01T15:45:31;0.80;;;0.80;;
78916;SDS011;68315;48.608;11.436;2023-04-01T15:55:59;0.68;;;0.65;;
78916;SDS011;68315;48.608;11.436;2023-04-01T15:58:42;0.60;;;0.60;;
78916;SDS011;68315;48.608;11.436;2023-04-01T16:20:22;0.75;;;0.68;;
78916;SDS011;68315;48.608;11.436;2023-04-01T16:26:13;0.65;;;0.60;;
78916;SDS011;68315;48.608;11.436;2023-04-01T16:28:53;0.70;;;0.63;;
78916;SDS011;68315;48.608;11.436;2023-04-01T16:32:13;0.70;;;0.70;;
78916;SDS011;68315;48.608;11.436;2023-04-01T16:34:30;1.58;;;0.80;;
78916;SDS011;68315;48.608;11.436;2023-04-01T16:37:05;0.93;;;0.90;;
78916;SDS011;68315;48.608;11.436;2023-04-01T16:42:56;0.93;;;0.80;;
78916;SDS011;68315;48.608;11.436;2023-04-01T16:48:14;1.17;;;0.90;;
78916;SDS011;68315;48.608;11.436;2023-04-01T16:56:16;0.80;;;0.80;;
78916;SDS011;68315;48.608;11.436;2023-04-01T17:01:31;1.35;;;0.90;;
78916;SDS011;68315;48.608;11.436;2023-04-01T17:04:10;0.80;;;0.80;;
78916;SDS011;68315;48.608;11.436;2023-04-01T17:06:53;0.75;;;0.70;;
78916;SDS011;68315;48.608;11.436;2023-04-01T17:10:25;0.80;;;0.80;;
78916;SDS011;68315;48.608;11.436;2023-04-01T17:13:03;0.70;;;0.70;;
78916;SDS011;68315;48.608;11.436;2023-04-01T17:18:54;1.58;;;0.90;;
78916;SDS011;68315;48.608;11.436;2023-04-01T17:21:39;0.80;;;0.80;;
78916;SDS011;68315;48.608;11.436;2023-04-01T17:27:36;0.70;;;0.70;;
78916;SDS011;68315;48.608;11.436;2023-04-01T17:30:50;1.02;;;0.90;;
78916;SDS011;68315;48.608;11.436;2023-04-01T17:38:40;1.20;;;0.82;;
78916;SDS011;68315;48.608;11.436;2023-04-01T17:41:51;0.90;;;0.90;;
78916;SDS011;68315;48.608;11.436;2023-04-01T17:44:26;2.83;;;0.95;;
78916;SDS011;68315;48.608;11.436;2023-04-01T17:52:30;2.00;;;1.13;;
78916;SDS011;68315;48.608;11.436;2023-04-01T17:55:25;1.67;;;1.20;;
78916;SDS011;68315;48.608;11.436;2023-04-01T17:57:59;1.17;;;0.85;;
78916;SDS011;68315;48.608;11.436;2023-04-01T18:00:39;1.60;;;1.20;;
78916;SDS011;68315;48.608;11.436;2023-04-01T18:09:05;2.40;;;1.00;;
78916;SDS011;68315;48.608;11.436;2023-04-01T18:12:42;1.13;;;0.73;;
78916;SDS011;68315;48.608;11.436;2023-04-01T18:14:48;1.75;;;1.00;;
78916;SDS011;68315;48.608;11.436;2023-04-01T18:17:52;0.90;;;0.90;;
78916;SDS011;68315;48.608;11.436;2023-04-01T18:25:48;0.95;;;0.77;;
78916;SDS011;68315;48.608;11.436;2023-04-01T18:31:08;1.05;;;0.80;;
78916;SDS011;68315;48.608;11.436;2023-04-01T18:36:38;1.17;;;0.80;;
78916;SDS011;68315;48.608;11.436;2023-04-01T18:39:16;1.02;;;0.80;;
78916;SDS011;68315;48.608;11.436;2023-04-01T18:44:36;1.55;;;0.80;;
78916;SDS011;68315;48.608;11.436;2023-04-01T18:47:14;1.02;;;0.90;;
78916;SDS011;68315;48.608;11.436;2023-04-01T18:50:02;2.65;;;1.00;;
78916;SDS011;68315;48.608;11.436;2023-04-01T18:52:43;0.93;;;0.70;;
78916;SDS011;68315;48.608;11.436;2023-04-01T18:57:54;0.88;;;0.70;;
78916;SDS011;68315;48.608;11.436;2023-04-01T19:00:32;0.82;;;0.75;;
78916;SDS011;68315;48.608;11.436;2023-04-01T19:03:12;2.20;;;1.17;;
78916;SDS011;68315;48.608;11.436;2023-04-01T19:05:47;1.23;;;0.93;;
78916;SDS011;68315;48.608;11.436;2023-04-01T19:13:35;1.50;;;0.70;;
78916;SDS011;68315;48.608;11.436;2023-04-01T19:16:25;1.13;;;0.88;;
78916;SDS011;68315;48.608;11.436;2023-04-01T19:28:13;1.67;;;1.20;;
78916;SDS011;68315;48.608;11.436;2023-04-01T19:43:53;1.73;;;1.05;;
78916;SDS011;68315;48.608;11.436;2023-04-01T19:49:18;2.25;;;1.30;;
78916;SDS011;68315;48.608;11.436;2023-04-01T19:59:50;1.95;;;1.00;;
78916;SDS011;68315;48.608;11.436;2023-04-01T20:02:33;1.77;;;1.05;;
78916;SDS011;68315;48.608;11.436;2023-04-01T20:05:15;1.30;;;0.90;;
78916;SDS011;68315;48.608;11.436;2023-04-01T20:07:44;1.58;;;1.10;;
78916;SDS011;68315;48.608;11.436;2023-04-01T20:10:18;1.20;;;1.08;;
78916;SDS011;68315;48.608;11.436;2023-04-01T20:13:05;1.55;;;0.90;;
78916;SDS011;68315;48.608;11.436;2023-04-01T20:15:41;1.08;;;0.70;;
78916;SDS011;68315;48.608;11.436;2023-04-01T20:18:25;1.00;;;0.90;;
78916;SDS011;68315;48.608;11.436;2023-04-01T20:21:06;1.40;;;1.02;;
78916;SDS011;68315;48.608;11.436;2023-04-01T20:23:59;0.90;;;0.90;;
78916;SDS011;68315;48.608;11.436;2023-04-01T20:26:31;1.80;;;1.17;;
78916;SDS011;68315;48.608;11.436;2023-04-01T20:29:16;1.33;;;0.80;;
78916;SDS011;68315;48.608;11.436;2023-04-01T20:31:56;1.15;;;0.70;;
78916;SDS011;68315;48.608;11.436;2023-04-01T20:34:36;1.95;;;0.95;;
78916;SDS011;68315;48.608;11.436;2023-04-01T20:37:16;0.90;;;0.80;;
78916;SDS011;68315;48.608;11.436;2023-04-01T20:42:57;1.25;;;0.80;;
78916;SDS011;68315;48.608;11.436;2023-04-01T20:45:46;0.70;;;0.70;;
78916;SDS011;68315;48.608;11.436;2023-04-01T20:51:18;0.80;;;0.70;;
78916;SDS011;68315;48.608;11.436;2023-04-01T20:56:47;1.30;;;1.10;;
78916;SDS011;68315;48.608;11.436;2023-04-01T21:08:05;1.80;;;0.90;;
78916;SDS011;68315;48.608;11.436;2023-04-01T21:13:11;2.00;;;0.70;;
78916;SDS011;68315;48.608;11.436;2023-04-01T21:18:43;0.90;;;0.80;;
78916;SDS011;68315;48.608;11.436;2023-04-01T21:27:11;0.95;;;0.90;;
78916;SDS011;68315;48.608;11.436;2023-04-01T21:29:53;1.38;;;0.82;;
78916;SDS011;68315;48.608;11.436;2023-04-01T21:35:21;0.75;;;0.75;;
78916;SDS011;68315;48.608;11.436;2023-04-01T21:37:55;3.20;;;1.00;;
78916;SDS011;68315;48.608;11.436;2023-04-01T21:45:59;0.98;;;0.70;;
78916;SDS011;68315;48.608;11.436;2023-04-01T21:51:11;0.82;;;0.82;;
78916;SDS011;68315;48.608;11.436;2023-04-01T22:05:30;0.93;;;0.90;;
78916;SDS011;68315;48.608;11.436;2023-04-01T22:13:49;1.30;;;1.02;;
78916;SDS011;68315;48.608;11.436;2023-04-01T22:24:28;1.88;;;0.90;;
78916;SDS011;68315;48.608;11.436;2023-04-01T22:27:07;1.92;;;0.95;;
78916;SDS011;68315;48.608;11.436;2023-04-01T22:38:07;1.08;;;0.82;;
78916;SDS011;68315;48.608;11.436;2023-04-01T22:42:59;1.33;;;1.00;;
78916;SDS011;68315;48.608;11.436;2023-04-01T22:48:32;1.90;;;1.10;;
78916;SDS011;68315;48.608;11.436;2023-04-01T22:56:31;1.15;;;0.80;;
78916;SDS011;68315;48.608;11.436;2023-04-01T23:01:44;1.95;;;1.02;;
78916;SDS011;68315;48.608;11.436;2023-04-01T23:04:16;0.82;;;0.80;;
78916;SDS011;68315;48.608;11.436;2023-04-01T23:06:48;1.15;;;1.00;;
78916;SDS011;68315;48.608;11.436;2023-04-01T23:09:19;2.03;;;1.00;;
78916;SDS011;68315;48.608;11.436;2023-04-01T23:11:57;2.28;;;1.02;;
78916;SDS011;68315;48.608;11.436;2023-04-01T23:19:52;1.00;;;0.90;;
78916;SDS011;68315;48.608;11.436;2023-04-01T23:30:50;1.15;;;0.98;;
78916;SDS011;68315;48.608;11.436;2023-04-01T23:35:51;3.38;;;1.23;;
78916;SDS011;68315;48.608;11.436;2023-04-01T23:38:25;1.30;;;0.88;;
78916;SDS011;68315;48.608;11.436;2023-04-01T23:40:52;3.20;;;0.90;;
78916;SDS011;68315;48.608;11.436;2023-04-01T23:43:26;1.20;;;0.82;;
78916;SDS011;68315;48.608;11.436;2023-04-01T23:45:56;2.03;;;0.90;;
78916;SDS011;68315;48.608;11.436;2023-04-01T23:48:25;1.17;;;0.80;;
78916;SDS011;68315;48.608;11.436;2023-04-01T23:50:53;1.60;;;0.98;;
78916;SDS011;68315;48.608;11.436;2023-04-01T23:53:24;1.13;;;0.90;;
78916;SDS011;68315;48.608;11.436;2023-04-01T23:55:51;1.58;;;1.00;;
78916;SDS011;68315;48.608;11.436;2023-04-01T23:58:28;0.88;;;0.88;;
